createdAt,value
2022-11-24T00:00:34.126Z,45.86
2022-11-24T00:05:38.506Z,45.51
2022-11-24T00:10:40.426Z,45.49
2022-11-24T00:15:42.430Z,49.72
2022-11-24T00:20:52.077Z,46.09
2022-11-24T00:25:53.951Z,47.65
2022-11-24T00:30:55.850Z,48.29
2022-11-24T00:35:59.362Z,46.67
2022-11-24T00:41:01.470Z,47.31
2022-11-24T00:46:03.793Z,46.64
2022-11-24T00:51:08.639Z,46.00
2022-11-24T00:56:11.928Z,44.79
2022-11-24T01:01:21.005Z,45.73
2022-11-24T01:06:25.452Z,45.47
2022-11-24T01:11:50.582Z,46.18
2022-11-24T01:16:52.978Z,46.45
2022-11-24T01:21:54.926Z,46.41
2022-11-24T01:26:56.919Z,46.34
2022-11-24T01:31:58.852Z,46.03
2022-11-24T01:37:00.782Z,44.87
2022-11-24T01:42:02.724Z,45.43
2022-11-24T01:47:20.430Z,45.79
2022-11-24T01:52:29.961Z,46.45
2022-11-24T01:57:51.632Z,46.55
2022-11-24T02:02:53.790Z,45.87
2022-11-24T02:07:59.735Z,46.50
2022-11-24T02:13:01.909Z,46.09
2022-11-24T02:18:04.084Z,46.22
2022-11-24T02:23:12.953Z,46.50
2022-11-24T02:28:21.405Z,46.48
2022-11-24T02:33:25.288Z,46.02
2022-11-24T02:38:35.441Z,45.71
2022-11-24T02:43:50.648Z,46.14
2022-11-24T02:48:52.580Z,45.90
2022-11-24T02:53:54.465Z,45.63
2022-11-24T02:58:56.403Z,45.05
2022-11-24T03:03:58.466Z,45.76
2022-11-24T03:09:00.383Z,45.59
2022-11-24T03:14:02.288Z,52.34
2022-11-24T03:19:04.792Z,51.36
2022-11-24T03:24:06.724Z,49.05
2022-11-24T03:29:09.070Z,48.77
2022-11-24T03:34:10.947Z,47.79
2022-11-24T03:39:12.948Z,46.99
2022-11-24T03:44:14.821Z,47.08
2022-11-24T03:49:16.737Z,46.35
2022-11-24T03:54:18.761Z,47.30
2022-11-24T03:59:20.699Z,47.13
2022-11-24T04:04:22.670Z,47.80
2022-11-24T04:09:24.605Z,47.98
2022-11-24T04:14:26.530Z,50.73
2022-11-24T04:19:28.549Z,50.71
2022-11-24T04:24:30.509Z,50.99
2022-11-24T04:29:32.434Z,50.58
2022-11-24T04:34:35.067Z,48.50
2022-11-24T04:39:37.265Z,48.88
2022-11-24T04:44:39.268Z,52.59
2022-11-24T04:49:41.171Z,53.79
2022-11-24T04:54:43.307Z,54.17
2022-11-24T04:59:45.329Z,55.63
2022-11-24T05:04:47.628Z,54.03
2022-11-24T05:10:08.488Z,51.35
2022-11-24T05:15:11.161Z,48.85
2022-11-24T05:20:13.216Z,48.68
2022-11-24T05:25:15.414Z,48.25
2022-11-24T05:30:18.062Z,51.58
2022-11-24T05:35:20.959Z,47.85
2022-11-24T05:40:23.300Z,47.31
2022-11-24T05:45:25.630Z,46.21
2022-11-24T05:50:27.580Z,47.37
2022-11-24T05:55:29.596Z,46.35
2022-11-24T06:00:32.971Z,47.36
2022-11-24T06:05:34.970Z,48.19
2022-11-24T06:10:37.071Z,46.27
2022-11-24T06:15:40.461Z,46.04
2022-11-24T06:20:53.099Z,46.17
2022-11-24T06:26:05.113Z,45.34
2022-11-24T06:31:07.112Z,45.65
2022-11-24T06:36:12.144Z,46.46
2022-11-24T06:41:16.104Z,46.84
2022-11-24T06:46:18.180Z,48.26
2022-11-24T06:51:20.262Z,48.94
2022-11-24T06:56:22.376Z,49.64
2022-11-24T07:01:29.558Z,49.39
2022-11-24T07:06:31.575Z,50.10
2022-11-24T07:11:33.617Z,48.80
2022-11-24T07:16:36.478Z,48.16
2022-11-24T07:21:38.569Z,48.50
2022-11-24T07:26:40.611Z,47.99
2022-11-24T07:31:42.744Z,47.05
2022-11-24T07:36:45.213Z,46.54
2022-11-24T07:41:47.201Z,45.83
2022-11-24T07:46:51.323Z,49.15
2022-11-24T07:51:53.374Z,47.05
2022-11-24T07:56:55.602Z,45.81
2022-11-24T08:01:57.632Z,47.93
2022-11-24T08:06:59.612Z,45.74
2022-11-24T08:12:01.639Z,46.77
2022-11-24T08:17:03.906Z,46.04
2022-11-24T08:22:05.984Z,45.73
2022-11-24T08:27:08.014Z,45.68
2022-11-24T08:32:11.038Z,45.02
2022-11-24T08:37:13.083Z,46.32
2022-11-24T08:42:15.087Z,45.31
2022-11-24T08:47:17.147Z,47.48
2022-11-24T08:52:19.123Z,52.22
2022-11-24T08:57:21.990Z,50.52
2022-11-24T09:02:24.080Z,47.42
2022-11-24T09:07:26.104Z,46.40
2022-11-24T09:12:28.293Z,47.25
2022-11-24T09:17:30.279Z,47.02
2022-11-24T09:22:32.428Z,46.61
2022-11-24T09:27:34.450Z,44.00
2022-11-24T09:32:36.512Z,43.71
2022-11-24T09:37:38.532Z,43.79
2022-11-24T09:43:00.603Z,41.54
2022-11-24T09:48:09.096Z,42.29
2022-11-24T09:53:34.492Z,44.78
2022-11-24T09:59:00.970Z,47.02
2022-11-24T10:04:06.689Z,48.65
2022-11-24T10:09:30.555Z,46.77
2022-11-24T10:14:54.134Z,43.34
2022-11-24T10:20:09.304Z,43.87
2022-11-24T10:25:42.179Z,43.65
2022-11-24T10:30:44.209Z,40.77
2022-11-24T10:35:55.344Z,38.17
2022-11-24T10:41:12.733Z,38.16
2022-11-24T10:46:25.478Z,44.11
2022-11-24T10:52:07.179Z,51.24
2022-11-24T10:57:09.267Z,46.91
2022-11-24T11:02:30.173Z,45.53
2022-11-24T11:07:32.337Z,52.31
2022-11-24T11:12:49.665Z,52.44
2022-11-24T11:17:54.640Z,52.32
2022-11-24T11:22:58.876Z,51.27
2022-11-24T11:28:29.366Z,49.03
2022-11-24T11:38:55.807Z,51.11
2022-11-24T11:44:10.850Z,53.22
2022-11-24T11:49:13.580Z,50.80
2022-11-24T11:54:27.365Z,49.98
2022-11-24T11:59:43.861Z,49.02
2022-11-24T12:04:48.762Z,46.20
2022-11-24T12:10:05.609Z,44.20
2022-11-24T12:15:23.029Z,47.37
2022-11-24T12:20:46.524Z,45.09
2022-11-24T12:25:55.152Z,46.76
2022-11-24T12:31:27.505Z,53.25
2022-11-24T12:36:34.910Z,51.58
2022-11-24T12:42:11.870Z,44.51
2022-11-24T12:47:24.259Z,37.85
2022-11-24T12:52:35.214Z,44.01
2022-11-24T12:57:50.847Z,43.20
2022-11-24T13:03:05.568Z,47.81
2022-11-24T13:08:07.954Z,46.53
2022-11-24T13:13:12.443Z,43.54
2022-11-24T13:18:52.142Z,44.93
2022-11-24T13:24:03.065Z,41.57
2022-11-24T13:29:18.214Z,45.64
2022-11-24T13:34:41.572Z,44.24
2022-11-24T13:39:57.835Z,41.61
2022-11-24T13:45:04.567Z,40.85
2022-11-24T13:50:49.818Z,39.36
2022-11-24T13:56:08.896Z,38.54
2022-11-24T14:01:18.384Z,36.11
2022-11-24T14:06:34.375Z,36.06
2022-11-24T14:11:36.488Z,35.72
2022-11-24T14:16:38.529Z,36.09
2022-11-24T14:21:41.459Z,34.75
2022-11-24T14:26:47.124Z,35.13
2022-11-24T14:32:04.841Z,35.02
2022-11-24T14:37:09.680Z,33.88
2022-11-24T14:42:21.361Z,33.68
2022-11-24T14:47:32.085Z,34.46
2022-11-24T14:52:35.185Z,33.87
2022-11-24T14:57:40.405Z,33.97
2022-11-24T15:02:53.459Z,36.76
2022-11-24T15:08:03.460Z,35.32
2022-11-24T15:13:19.023Z,35.03
2022-11-24T15:18:46.085Z,34.18
2022-11-24T15:24:15.360Z,35.70
2022-11-24T15:29:17.276Z,35.94
2022-11-24T15:34:19.189Z,38.84
2022-11-24T15:39:21.102Z,38.82
2022-11-24T15:44:23.027Z,38.02
2022-11-24T15:49:24.949Z,38.29
2022-11-24T15:54:27.737Z,38.12
2022-11-24T15:59:31.274Z,38.12
2022-11-24T16:04:33.681Z,37.65
2022-11-24T16:09:35.902Z,39.11
2022-11-24T16:14:38.172Z,38.51
2022-11-24T16:19:41.999Z,43.05
2022-11-24T16:24:44.272Z,40.38
2022-11-24T16:29:46.184Z,41.05
2022-11-24T16:34:48.312Z,41.25
2022-11-24T16:39:50.935Z,39.46
2022-11-24T16:44:52.932Z,39.62
2022-11-24T16:49:54.903Z,38.95
2022-11-24T16:54:56.928Z,38.88
2022-11-24T16:59:58.933Z,38.05
2022-11-24T17:05:01.034Z,39.46
2022-11-24T17:10:03.297Z,39.97
2022-11-24T17:20:27.829Z,37.92
2022-11-24T17:25:29.896Z,40.33
2022-11-24T17:30:31.910Z,39.26
2022-11-24T17:35:34.850Z,39.19
2022-11-24T17:40:37.261Z,37.48
2022-11-24T17:45:39.374Z,39.28
2022-11-24T17:50:41.343Z,37.76
2022-11-24T17:55:43.367Z,40.74
2022-11-24T18:00:45.472Z,37.79
2022-11-24T18:05:47.850Z,38.62
2022-11-24T18:10:50.176Z,40.67
2022-11-24T18:15:52.091Z,41.92
2022-11-24T18:20:58.551Z,41.10
2022-11-24T18:26:03.712Z,41.79
2022-11-24T18:31:11.367Z,42.29
2022-11-24T18:36:17.355Z,40.67
2022-11-24T18:41:20.222Z,39.43
2022-11-24T18:46:22.347Z,40.31
2022-11-24T18:51:24.694Z,41.47
2022-11-24T18:56:27.174Z,40.32
2022-11-24T19:01:29.602Z,39.56
2022-11-24T19:06:37.026Z,39.75
2022-11-24T19:11:41.753Z,39.64
2022-11-24T19:16:45.239Z,39.22
2022-11-24T19:21:47.313Z,39.87
2022-11-24T19:26:51.330Z,39.00
2022-11-24T19:31:55.097Z,39.84
2022-11-24T19:36:57.112Z,40.27
2022-11-24T19:41:59.060Z,40.46
2022-11-24T19:47:01.038Z,39.28
2022-11-24T19:52:03.109Z,41.44
2022-11-24T19:57:05.063Z,39.71
2022-11-24T20:02:07.237Z,38.40
2022-11-24T20:07:09.629Z,37.43
2022-11-24T20:12:11.680Z,36.07
2022-11-24T20:17:14.098Z,36.60
2022-11-24T20:22:15.985Z,37.56
2022-11-24T20:27:18.457Z,37.98
2022-11-24T20:32:20.752Z,37.14
2022-11-24T20:37:23.371Z,36.99
2022-11-24T20:42:25.539Z,36.31
2022-11-24T20:47:27.980Z,38.13
2022-11-24T20:52:30.429Z,37.22
2022-11-24T20:57:32.463Z,37.99
2022-11-24T21:02:34.402Z,37.76
2022-11-24T21:07:36.367Z,37.44
2022-11-24T21:12:38.345Z,38.43
2022-11-24T21:17:40.369Z,39.03
2022-11-24T21:22:42.242Z,39.14
2022-11-24T21:27:44.266Z,39.34
2022-11-24T21:32:46.592Z,38.71
2022-11-24T21:37:48.521Z,39.63
2022-11-24T21:42:50.436Z,40.46
2022-11-24T21:47:52.360Z,42.88
2022-11-24T21:52:54.986Z,40.39
2022-11-24T21:57:58.995Z,38.85
2022-11-24T22:03:00.873Z,39.99
2022-11-24T22:08:03.914Z,40.26
2022-11-24T22:13:05.842Z,40.31
2022-11-24T22:18:07.811Z,39.83
2022-11-24T22:23:10.360Z,40.33
2022-11-24T22:28:12.354Z,41.27
2022-11-24T22:33:14.319Z,41.13
2022-11-24T22:38:16.215Z,39.26
2022-11-24T22:43:22.848Z,38.59
2022-11-24T22:48:25.063Z,38.45
2022-11-24T22:53:26.997Z,37.70
2022-11-24T22:58:30.315Z,39.22
2022-11-24T23:03:34.245Z,39.72
2022-11-24T23:08:36.853Z,38.51
2022-11-24T23:13:39.161Z,40.14
2022-11-24T23:18:41.680Z,39.84
2022-11-24T23:23:44.746Z,39.74
2022-11-24T23:28:47.681Z,39.52
2022-11-24T23:33:49.987Z,39.29
2022-11-24T23:38:52.036Z,40.73
2022-11-24T23:43:53.939Z,39.23
2022-11-24T23:48:56.880Z,39.06
2022-11-24T23:54:00.028Z,40.10
2022-11-24T23:59:03.857Z,39.53
